Time;durP1;ratioP1;P1;durP2;ratioP2;P2;SDS_P1;SDS_P2;PMS_P1;PMS_P2;Temp;Humidity;BMP_temperature;BMP_pressure;BME280_temperature;BME280_humidity;BME280_pressure;Samples;Min_cycle;Max_cycle;Signal;HPM_P1;HPM_P2
2019/09/06 00:01:38;;;;;;;1.30;1.20;;;;;;;22.14;49.83;101396.80;;;;-54
2019/09/06 00:04:38;;;;;;;1.20;1.10;;;;;;;22.14;49.83;101399.42;;;;-54
2019/09/06 00:07:38;;;;;;;1.49;1.35;;;;;;;22.14;49.94;101398.25;;;;-55
2019/09/06 00:10:38;;;;;;;1.23;1.16;;;;;;;22.14;49.81;101398.08;;;;-54
2019/09/06 00:13:38;;;;;;;1.35;1.22;;;;;;;22.13;49.92;101392.42;;;;-54
2019/09/06 00:16:38;;;;;;;1.40;1.29;;;;;;;22.13;49.92;101394.41;;;;-54
2019/09/06 00:19:38;;;;;;;1.33;1.23;;;;;;;22.13;49.87;101390.13;;;;-54
2019/09/06 00:22:38;;;;;;;1.40;1.30;;;;;;;22.12;49.88;101386.66;;;;-54
2019/09/06 00:25:38;;;;;;;1.30;1.20;;;;;;;22.12;49.90;101385.48;;;;-54
2019/09/06 00:28:38;;;;;;;1.30;1.20;;;;;;;22.12;49.94;101384.77;;;;-54
2019/09/06 00:31:37;;;;;;;1.41;1.27;;;;;;;22.11;49.87;101380.72;;;;-54
2019/09/06 00:34:38;;;;;;;1.72;1.22;;;;;;;22.12;49.86;101380.83;;;;-54
2019/09/06 00:37:38;;;;;;;1.85;1.13;;;;;;;22.11;49.95;101381.90;;;;-55
2019/09/06 00:40:38;;;;;;;1.37;1.27;;;;;;;22.11;49.96;101381.12;;;;-51
2019/09/06 00:43:38;;;;;;;1.58;1.31;;;;;;;22.12;49.86;101381.17;;;;-51
2019/09/06 00:46:38;;;;;;;1.33;1.23;;;;;;;22.11;50.01;101378.87;;;;-51
2019/09/06 00:49:38;;;;;;;1.38;1.26;;;;;;;22.11;50.00;101377.75;;;;-51
2019/09/06 00:52:38;;;;;;;1.31;1.21;;;;;;;22.11;49.95;101374.39;;;;-51
2019/09/06 00:55:38;;;;;;;1.48;1.33;;;;;;;22.11;49.96;101376.08;;;;-51
2019/09/06 00:58:38;;;;;;;1.50;1.20;;;;;;;22.10;49.94;101373.50;;;;-51
2019/09/06 01:01:38;;;;;;;1.41;1.25;;;;;;;22.11;50.03;101374.45;;;;-51
2019/09/06 01:04:38;;;;;;;1.47;1.31;;;;;;;22.10;50.00;101376.25;;;;-51
2019/09/06 01:07:38;;;;;;;1.58;1.38;;;;;;;22.10;50.06;101378.78;;;;-51
2019/09/06 01:10:38;;;;;;;1.27;1.17;;;;;;;22.10;49.97;101381.58;;;;-51
2019/09/06 01:13:37;;;;;;;1.35;1.25;;;;;;;22.10;50.04;101375.96;;;;-51
2019/09/06 01:16:38;;;;;;;1.30;1.20;;;;;;;22.09;50.03;101366.32;;;;-51
2019/09/06 01:19:38;;;;;;;1.44;1.23;;;;;;;22.09;50.02;101366.28;;;;-50
2019/09/06 01:22:38;;;;;;;1.52;1.30;;;;;;;22.09;50.10;101365.78;;;;-51
2019/09/06 01:25:38;;;;;;;1.41;1.31;;;;;;;22.09;50.00;101366.88;;;;-51
2019/09/06 01:28:38;;;;;;;1.32;1.22;;;;;;;22.09;50.04;101372.27;;;;-51
2019/09/06 01:31:38;;;;;;;1.49;1.21;;;;;;;22.09;49.98;101366.39;;;;-51
2019/09/06 01:34:38;;;;;;;1.26;1.16;;;;;;;22.09;50.05;101367.72;;;;-51
2019/09/06 01:37:38;;;;;;;1.49;1.19;;;;;;;22.08;50.06;101365.59;;;;-52
2019/09/06 01:40:38;;;;;;;1.29;1.19;;;;;;;22.08;50.11;101369.13;;;;-51
2019/09/06 01:43:38;;;;;;;1.21;1.11;;;;;;;22.08;50.02;101371.05;;;;-51
2019/09/06 01:46:38;;;;;;;1.23;1.13;;;;;;;22.08;50.08;101369.36;;;;-51
2019/09/06 01:49:38;;;;;;;1.19;1.15;;;;;;;22.09;50.03;101372.77;;;;-51
2019/09/06 01:52:38;;;;;;;2.12;1.30;;;;;;;22.08;50.07;101372.55;;;;-51
2019/09/06 01:55:38;;;;;;;1.45;1.35;;;;;;;22.08;50.08;101373.30;;;;-51
2019/09/06 01:58:37;;;;;;;1.07;1.07;;;;;;;22.08;50.11;101371.38;;;;-51
2019/09/06 02:01:38;;;;;;;1.41;1.30;;;;;;;22.07;50.12;101371.50;;;;-50
2019/09/06 02:04:38;;;;;;;1.31;1.21;;;;;;;22.07;50.19;101373.59;;;;-51
2019/09/06 02:07:38;;;;;;;1.79;1.30;;;;;;;22.07;50.14;101372.41;;;;-51
2019/09/06 02:10:38;;;;;;;1.30;1.20;;;;;;;22.07;50.18;101373.58;;;;-51
2019/09/06 02:13:38;;;;;;;1.35;1.19;;;;;;;22.06;50.17;101371.52;;;;-51
2019/09/06 02:16:38;;;;;;;1.61;1.30;;;;;;;22.06;50.17;101373.47;;;;-51
2019/09/06 02:19:37;;;;;;;1.33;1.23;;;;;;;22.06;50.17;101373.14;;;;-51
2019/09/06 02:22:38;;;;;;;1.43;1.21;;;;;;;22.06;50.18;101370.55;;;;-51
2019/09/06 02:25:38;;;;;;;1.68;1.41;;;;;;;22.06;50.16;101371.28;;;;-51
2019/09/06 02:28:38;;;;;;;1.47;1.29;;;;;;;22.06;50.21;101368.82;;;;-52
2019/09/06 02:31:38;;;;;;;1.31;1.20;;;;;;;22.05;50.17;101370.83;;;;-51
2019/09/06 02:34:38;;;;;;;1.44;1.29;;;;;;;22.05;50.14;101374.87;;;;-50
2019/09/06 02:37:37;;;;;;;1.40;1.30;;;;;;;22.04;50.20;101371.52;;;;-51
2019/09/06 02:40:37;;;;;;;1.29;1.19;;;;;;;22.05;50.17;101371.80;;;;-51
2019/09/06 02:43:38;;;;;;;1.37;1.26;;;;;;;22.04;50.15;101371.08;;;;-51
2019/09/06 02:46:38;;;;;;;1.32;1.22;;;;;;;22.05;50.24;101367.25;;;;-51
2019/09/06 02:49:38;;;;;;;1.28;1.19;;;;;;;22.04;50.27;101365.14;;;;-51
2019/09/06 02:52:38;;;;;;;1.31;1.15;;;;;;;22.04;50.23;101366.88;;;;-51
2019/09/06 02:55:38;;;;;;;1.26;1.17;;;;;;;22.04;50.21;101361.70;;;;-51
2019/09/06 02:58:37;;;;;;;1.41;1.19;;;;;;;22.03;50.24;101355.66;;;;-51
2019/09/06 03:01:38;;;;;;;1.47;1.18;;;;;;;22.04;50.24;101359.58;;;;-50
2019/09/06 03:04:37;;;;;;;1.29;1.14;;;;;;;22.03;50.25;101359.86;;;;-51
2019/09/06 03:07:38;;;;;;;1.31;1.21;;;;;;;22.03;50.23;101362.39;;;;-51
2019/09/06 03:10:38;;;;;;;1.43;1.22;;;;;;;22.02;50.24;101358.57;;;;-51
2019/09/06 03:13:38;;;;;;;1.66;1.29;;;;;;;22.03;50.27;101363.23;;;;-50
2019/09/06 03:16:38;;;;;;;1.63;1.18;;;;;;;22.02;50.22;101357.73;;;;-51
2019/09/06 03:19:38;;;;;;;1.44;1.30;;;;;;;22.02;50.21;101355.62;;;;-51
2019/09/06 03:22:37;;;;;;;1.32;1.22;;;;;;;22.03;50.33;101353.03;;;;-51
2019/09/06 03:25:37;;;;;;;1.35;1.25;;;;;;;22.03;50.27;101355.16;;;;-51
2019/09/06 03:28:37;;;;;;;1.48;1.34;;;;;;;22.02;50.29;101355.95;;;;-51
2019/09/06 03:31:38;;;;;;;1.35;1.21;;;;;;;22.02;50.28;101355.88;;;;-51
2019/09/06 03:34:38;;;;;;;1.25;1.17;;;;;;;22.01;50.24;101354.89;;;;-51
2019/09/06 03:37:38;;;;;;;1.25;1.15;;;;;;;22.02;50.33;101363.02;;;;-50
2019/09/06 03:40:38;;;;;;;1.29;1.21;;;;;;;22.01;50.28;101361.05;;;;-51
2019/09/06 03:43:38;;;;;;;1.47;1.20;;;;;;;22.01;50.36;101361.68;;;;-50
2019/09/06 03:46:38;;;;;;;1.30;1.20;;;;;;;22.00;50.38;101359.61;;;;-51
2019/09/06 03:49:38;;;;;;;1.37;1.25;;;;;;;22.00;50.34;101361.91;;;;-50
2019/09/06 03:52:37;;;;;;;1.35;1.25;;;;;;;22.00;50.32;101357.97;;;;-51
2019/09/06 03:55:37;;;;;;;1.35;1.20;;;;;;;22.00;50.39;101359.78;;;;-52
2019/09/06 03:58:38;;;;;;;1.45;1.26;;;;;;;22.00;50.42;101362.30;;;;-50
2019/09/06 04:01:38;;;;;;;1.43;1.33;;;;;;;21.99;50.35;101364.31;;;;-51
2019/09/06 04:04:38;;;;;;;1.46;1.24;;;;;;;21.99;50.41;101368.09;;;;-50
2019/09/06 04:07:38;;;;;;;1.85;1.24;;;;;;;21.98;50.35;101362.08;;;;-51
2019/09/06 04:10:37;;;;;;;12.18;1.95;;;;;;;21.98;50.52;101359.33;;;;-57
2019/09/06 04:13:37;;;;;;;2.65;1.37;;;;;;;22.00;50.56;101360.62;;;;-55
2019/09/06 04:16:37;;;;;;;2.13;1.29;;;;;;;22.02;50.72;101367.22;;;;-57
2019/09/06 04:19:37;;;;;;;2.78;1.43;;;;;;;22.06;50.66;101366.23;;;;-55
2019/09/06 04:22:38;;;;;;;1.39;1.29;;;;;;;22.08;50.64;101364.82;;;;-57
2019/09/06 04:25:38;;;;;;;3.32;1.40;;;;;;;22.10;50.65;101363.34;;;;-57
2019/09/06 04:28:38;;;;;;;2.37;1.31;;;;;;;22.12;50.60;101363.94;;;;-57
2019/09/06 04:31:38;;;;;;;2.03;1.40;;;;;;;22.14;50.59;101365.28;;;;-56
2019/09/06 04:34:38;;;;;;;2.82;1.46;;;;;;;22.13;50.59;101370.95;;;;-52
2019/09/06 04:37:37;;;;;;;1.44;1.33;;;;;;;22.13;50.60;101369.71;;;;-52
2019/09/06 04:40:37;;;;;;;2.39;1.48;;;;;;;22.14;50.56;101373.86;;;;-52
2019/09/06 04:43:38;;;;;;;3.07;1.48;;;;;;;22.13;50.52;101383.34;;;;-52
2019/09/06 04:46:38;;;;;;;2.31;1.55;;;;;;;22.14;50.51;101388.33;;;;-52
2019/09/06 04:49:38;;;;;;;1.93;1.40;;;;;;;22.14;50.54;101389.84;;;;-52
2019/09/06 04:52:38;;;;;;;1.90;1.41;;;;;;;22.15;50.48;101391.70;;;;-52
2019/09/06 04:55:38;;;;;;;2.53;1.35;;;;;;;22.14;50.48;101396.17;;;;-52
2019/09/06 04:58:37;;;;;;;1.54;1.34;;;;;;;22.14;50.47;101396.41;;;;-52
2019/09/06 05:01:37;;;;;;;1.68;1.45;;;;;;;22.14;50.50;101394.78;;;;-52
2019/09/06 05:04:38;;;;;;;1.55;1.34;;;;;;;22.14;50.41;101395.91;;;;-52
2019/09/06 05:07:38;;;;;;;1.76;1.38;;;;;;;22.14;50.42;101393.03;;;;-52
2019/09/06 05:10:37;;;;;;;2.18;1.57;;;;;;;22.14;50.41;101393.20;;;;-51
2019/09/06 05:13:38;;;;;;;2.30;1.59;;;;;;;22.14;50.37;101393.88;;;;-52
2019/09/06 05:16:38;;;;;;;1.85;1.45;;;;;;;22.13;50.35;101391.38;;;;-52
2019/09/06 05:19:38;;;;;;;1.54;1.44;;;;;;;22.13;50.36;101393.83;;;;-52
2019/09/06 05:22:38;;;;;;;2.37;1.68;;;;;;;22.13;50.33;101398.65;;;;-52
2019/09/06 05:25:38;;;;;;;3.14;1.61;;;;;;;22.13;50.31;101403.66;;;;-51
2019/09/06 05:28:38;;;;;;;1.32;1.22;;;;;;;22.13;50.29;101403.25;;;;-52
2019/09/06 05:31:38;;;;;;;1.77;1.31;;;;;;;22.13;50.32;101402.08;;;;-53
2019/09/06 05:34:38;;;;;;;1.59;1.43;;;;;;;22.12;50.31;101401.19;;;;-52
2019/09/06 05:37:38;;;;;;;1.45;1.33;;;;;;;22.12;50.33;101404.83;;;;-52
2019/09/06 05:40:38;;;;;;;1.70;1.33;;;;;;;22.13;50.29;101409.98;;;;-52
2019/09/06 05:43:37;;;;;;;1.53;1.40;;;;;;;22.13;50.25;101421.42;;;;-51
2019/09/06 05:46:37;;;;;;;3.08;1.56;;;;;;;22.13;50.25;101420.91;;;;-52
2019/09/06 05:49:37;;;;;;;1.79;1.61;;;;;;;22.11;50.25;101412.81;;;;-52
2019/09/06 05:52:38;;;;;;;1.57;1.47;;;;;;;22.12;50.17;101419.70;;;;-52
2019/09/06 05:55:38;;;;;;;2.95;1.46;;;;;;;22.11;50.16;101420.66;;;;-52
2019/09/06 05:58:38;;;;;;;1.99;1.57;;;;;;;22.12;50.16;101422.38;;;;-52
2019/09/06 06:01:38;;;;;;;2.46;1.44;;;;;;;22.12;50.19;101421.11;;;;-52
2019/09/06 06:04:38;;;;;;;1.58;1.43;;;;;;;22.12;50.16;101420.70;;;;-52
2019/09/06 06:07:38;;;;;;;1.65;1.44;;;;;;;22.11;50.14;101424.09;;;;-52
2019/09/06 06:10:37;;;;;;;1.51;1.39;;;;;;;22.12;50.04;101418.34;;;;-52
2019/09/06 06:13:37;;;;;;;1.71;1.50;;;;;;;22.11;50.10;101420.32;;;;-52
2019/09/06 06:16:37;;;;;;;2.05;1.53;;;;;;;22.10;50.12;101419.37;;;;-52
2019/09/06 06:19:38;;;;;;;2.68;1.68;;;;;;;22.11;50.13;101424.34;;;;-52
2019/09/06 06:22:38;;;;;;;1.86;1.59;;;;;;;22.11;50.17;101426.98;;;;-52
2019/09/06 06:25:38;;;;;;;6.50;3.06;;;;;;;21.51;43.53;101422.09;;;;-59
2019/09/06 06:28:37;;;;;;;7.13;3.39;;;;;;;20.93;43.17;101429.77;;;;-58
2019/09/06 06:31:37;;;;;;;7.97;3.39;;;;;;;20.53;43.54;101423.77;;;;-59
2019/09/06 06:34:37;;;;;;;6.19;3.23;;;;;;;20.20;44.01;101419.42;;;;-58
2019/09/06 06:37:38;;;;;;;6.03;3.25;;;;;;;19.91;44.84;101423.80;;;;-59
2019/09/06 06:40:38;;;;;;;8.20;3.30;;;;;;;19.76;44.88;101431.18;;;;-59
2019/09/06 06:43:38;;;;;;;6.52;3.20;;;;;;;19.55;45.33;101422.72;;;;-57
2019/09/06 06:46:38;;;;;;;7.04;3.21;;;;;;;19.37;45.58;101419.66;;;;-59
2019/09/06 06:49:38;;;;;;;7.95;3.29;;;;;;;19.36;45.53;101419.66;;;;-59
2019/09/06 06:52:38;;;;;;;6.33;2.97;;;;;;;19.06;46.03;101422.30;;;;-59
2019/09/06 06:55:37;;;;;;;6.32;3.27;;;;;;;18.99;46.45;101422.42;;;;-59
2019/09/06 06:58:37;;;;;;;7.54;3.13;;;;;;;18.96;46.43;101423.84;;;;-59
2019/09/06 07:01:37;;;;;;;6.67;3.17;;;;;;;18.93;46.44;101420.59;;;;-60
2019/09/06 07:04:38;;;;;;;10.01;3.18;;;;;;;18.72;47.09;101423.23;;;;-59
2019/09/06 07:07:38;;;;;;;7.92;3.11;;;;;;;18.72;47.25;101418.26;;;;-59
2019/09/06 07:10:38;;;;;;;9.55;3.24;;;;;;;18.61;47.57;101421.35;;;;-59
2019/09/06 07:13:37;;;;;;;5.66;3.06;;;;;;;18.74;47.25;101419.52;;;;-59
2019/09/06 07:16:37;;;;;;;7.87;3.21;;;;;;;18.66;47.40;101421.56;;;;-59
2019/09/06 07:19:37;;;;;;;7.14;2.84;;;;;;;18.78;47.60;101418.92;;;;-59
2019/09/06 07:22:37;;;;;;;5.35;2.95;;;;;;;18.85;47.69;101418.81;;;;-59
2019/09/06 07:25:37;;;;;;;7.75;2.88;;;;;;;18.94;47.76;101411.61;;;;-59
2019/09/06 07:28:38;;;;;;;7.99;2.93;;;;;;;19.01;47.58;101412.45;;;;-59
2019/09/06 07:31:38;;;;;;;7.85;2.91;;;;;;;19.04;47.62;101411.36;;;;-59
2019/09/06 07:34:37;;;;;;;7.27;2.60;;;;;;;19.09;47.57;101406.86;;;;-59
2019/09/06 07:37:37;;;;;;;5.97;2.64;;;;;;;19.15;47.56;101403.41;;;;-57
2019/09/06 07:40:38;;;;;;;7.35;2.55;;;;;;;19.41;47.72;101399.09;;;;-51
2019/09/06 07:43:37;;;;;;;5.63;2.59;;;;;;;19.62;47.85;101404.87;;;;-55
2019/09/06 07:46:38;;;;;;;8.73;2.55;;;;;;;19.75;47.91;101408.75;;;;-55
2019/09/06 07:49:38;;;;;;;8.27;2.73;;;;;;;19.87;47.95;101406.22;;;;-55
2019/09/06 07:52:38;;;;;;;4.36;2.36;;;;;;;19.96;47.84;101403.80;;;;-55
2019/09/06 07:55:38;;;;;;;7.27;2.50;;;;;;;20.04;47.82;101403.52;;;;-54
2019/09/06 07:58:37;;;;;;;6.27;2.41;;;;;;;20.11;47.77;101402.91;;;;-55
2019/09/06 08:01:37;;;;;;;6.30;2.49;;;;;;;20.17;47.76;101405.50;;;;-54
2019/09/06 08:04:37;;;;;;;5.72;2.41;;;;;;;20.22;47.86;101405.78;;;;-55
2019/09/06 08:07:37;;;;;;;4.66;2.21;;;;;;;20.27;47.82;101405.50;;;;-54
2019/09/06 08:10:38;;;;;;;6.83;2.18;;;;;;;20.32;47.82;101406.12;;;;-54
2019/09/06 08:13:38;;;;;;;5.53;2.31;;;;;;;20.35;47.84;101405.17;;;;-55
2019/09/06 08:16:38;;;;;;;4.37;2.22;;;;;;;20.39;47.83;101409.20;;;;-55
2019/09/06 08:19:37;;;;;;;2.98;1.91;;;;;;;20.42;47.92;101409.38;;;;-54
2019/09/06 08:22:37;;;;;;;3.79;2.13;;;;;;;20.45;47.88;101405.41;;;;-54
2019/09/06 08:25:38;;;;;;;4.07;1.93;;;;;;;20.48;47.93;101403.02;;;;-54
2019/09/06 08:28:37;;;;;;;3.03;1.90;;;;;;;20.50;47.99;101398.03;;;;-54
2019/09/06 08:31:38;;;;;;;3.41;2.05;;;;;;;20.53;47.99;101393.37;;;;-55
2019/09/06 08:34:37;;;;;;;3.23;2.14;;;;;;;20.56;47.96;101391.14;;;;-55
2019/09/06 08:37:38;;;;;;;4.02;1.90;;;;;;;20.57;48.04;101387.34;;;;-55
2019/09/06 08:40:37;;;;;;;2.93;1.92;;;;;;;20.60;48.08;101390.97;;;;-54
2019/09/06 08:43:37;;;;;;;3.54;1.95;;;;;;;20.63;48.06;101390.85;;;;-55
2019/09/06 08:46:37;;;;;;;3.23;1.93;;;;;;;20.65;48.09;101389.28;;;;-54
2019/09/06 08:49:37;;;;;;;2.35;1.74;;;;;;;20.67;48.15;101386.44;;;;-54
2019/09/06 08:52:38;;;;;;;4.12;1.89;;;;;;;20.69;48.08;101387.56;;;;-56
2019/09/06 08:55:37;;;;;;;3.63;1.93;;;;;;;20.71;48.12;101379.03;;;;-56
2019/09/06 08:58:38;;;;;;;2.32;1.63;;;;;;;20.72;48.20;101368.19;;;;-56
2019/09/06 09:01:38;;;;;;;6.49;1.99;;;;;;;20.73;48.31;101364.55;;;;-56
2019/09/06 09:04:37;;;;;;;3.27;2.05;;;;;;;20.76;48.21;101360.13;;;;-56
2019/09/06 09:07:38;;;;;;;4.33;1.81;;;;;;;20.79;48.26;101361.56;;;;-57
2019/09/06 09:10:38;;;;;;;4.05;2.04;;;;;;;20.79;48.26;101359.50;;;;-57
2019/09/06 09:13:38;;;;;;;5.58;2.21;;;;;;;20.82;48.27;101355.52;;;;-56
2019/09/06 09:16:38;;;;;;;3.77;1.81;;;;;;;20.83;48.30;101351.37;;;;-57
2019/09/06 09:19:38;;;;;;;2.83;1.81;;;;;;;20.84;48.26;101351.13;;;;-57
2019/09/06 09:22:37;;;;;;;4.79;2.07;;;;;;;20.86;48.31;101348.84;;;;-57
2019/09/06 09:25:38;;;;;;;3.19;1.69;;;;;;;20.86;48.33;101337.23;;;;-56
2019/09/06 09:28:37;;;;;;;3.59;1.72;;;;;;;20.88;48.34;101330.93;;;;-57
2019/09/06 09:31:38;;;;;;;4.05;1.70;;;;;;;20.89;48.41;101328.62;;;;-57
2019/09/06 09:34:38;;;;;;;3.60;1.79;;;;;;;20.90;48.32;101322.02;;;;-57
2019/09/06 09:37:37;;;;;;;2.39;1.71;;;;;;;20.92;48.41;101323.13;;;;-49
2019/09/06 09:40:38;;;;;;;2.01;1.63;;;;;;;20.93;48.38;101319.94;;;;-49
2019/09/06 09:43:37;;;;;;;4.51;1.75;;;;;;;20.95;48.42;101320.54;;;;-57
2019/09/06 09:46:37;;;;;;;2.29;1.75;;;;;;;20.95;48.42;101312.05;;;;-57
2019/09/06 09:49:38;;;;;;;2.66;1.63;;;;;;;20.96;48.46;101301.56;;;;-57
2019/09/06 09:52:38;;;;;;;2.37;1.65;;;;;;;20.98;48.47;101298.19;;;;-57
2019/09/06 09:55:37;;;;;;;4.04;1.66;;;;;;;20.99;48.46;101295.90;;;;-56
2019/09/06 09:58:37;;;;;;;2.07;1.63;;;;;;;21.00;48.49;101297.47;;;;-57
2019/09/06 10:01:38;;;;;;;2.06;1.59;;;;;;;21.01;48.48;101299.86;;;;-56
2019/09/06 10:04:37;;;;;;;2.47;1.67;;;;;;;21.02;48.49;101297.06;;;;-57
2019/09/06 10:07:37;;;;;;;2.14;1.63;;;;;;;21.03;48.52;101291.73;;;;-56
2019/09/06 10:10:37;;;;;;;3.85;1.73;;;;;;;21.04;48.55;101290.72;;;;-56
2019/09/06 10:13:38;;;;;;;2.47;1.63;;;;;;;21.05;48.53;101291.45;;;;-56
2019/09/06 10:16:37;;;;;;;2.44;1.65;;;;;;;21.06;48.56;101282.48;;;;-56
2019/09/06 10:19:37;;;;;;;3.55;1.56;;;;;;;21.07;48.56;101284.05;;;;-56
2019/09/06 10:22:38;;;;;;;3.21;1.50;;;;;;;21.09;48.57;101279.52;;;;-56
2019/09/06 10:25:37;;;;;;;3.25;1.70;;;;;;;21.09;48.57;101276.53;;;;-56
2019/09/06 10:28:38;;;;;;;2.06;1.53;;;;;;;21.10;48.55;101273.12;;;;-56
2019/09/06 10:31:38;;;;;;;1.78;1.50;;;;;;;21.11;48.59;101261.65;;;;-57
2019/09/06 10:34:38;;;;;;;2.91;1.49;;;;;;;21.12;48.59;101260.79;;;;-57
2019/09/06 10:37:37;;;;;;;3.15;1.57;;;;;;;21.12;48.67;101264.39;;;;-56
2019/09/06 10:40:38;;;;;;;2.21;1.49;;;;;;;21.14;48.64;101268.07;;;;-56
2019/09/06 10:43:38;;;;;;;2.00;1.60;;;;;;;21.13;48.66;101266.38;;;;-56
2019/09/06 10:46:38;;;;;;;1.59;1.45;;;;;;;21.13;48.78;101271.26;;;;-56
2019/09/06 10:49:37;;;;;;;1.74;1.47;;;;;;;21.13;48.77;101261.34;;;;-56
2019/09/06 10:52:38;;;;;;;1.85;1.43;;;;;;;21.14;48.82;101259.44;;;;-57
2019/09/06 10:55:37;;;;;;;1.99;1.44;;;;;;;21.13;48.83;101255.88;;;;-57
2019/09/06 10:58:37;;;;;;;2.00;1.50;;;;;;;21.14;48.84;101247.18;;;;-56
2019/09/06 11:01:37;;;;;;;1.64;1.40;;;;;;;21.15;48.86;101250.02;;;;-57
2019/09/06 11:04:37;;;;;;;1.66;1.44;;;;;;;21.16;48.88;101248.13;;;;-57
2019/09/06 11:07:37;;;;;;;1.79;1.51;;;;;;;21.16;48.89;101238.95;;;;-57
2019/09/06 11:10:37;;;;;;;1.70;1.50;;;;;;;21.15;48.90;101235.13;;;;-56
2019/09/06 11:13:37;;;;;;;1.83;1.41;;;;;;;21.17;48.91;101231.44;;;;-56
2019/09/06 11:16:37;;;;;;;1.99;1.47;;;;;;;21.17;48.88;101223.98;;;;-56
2019/09/06 11:19:37;;;;;;;4.16;1.70;;;;;;;21.17;49.03;101220.63;;;;-57
2019/09/06 11:22:37;;;;;;;2.92;1.51;;;;;;;21.21;48.92;101220.83;;;;-58
2019/09/06 11:25:37;;;;;;;3.57;1.51;;;;;;;21.25;49.02;101219.17;;;;-60
2019/09/06 11:28:37;;;;;;;3.25;1.50;;;;;;;21.27;48.97;101216.92;;;;-49
2019/09/06 11:31:37;;;;;;;2.98;1.45;;;;;;;21.30;48.93;101215.79;;;;-50
2019/09/06 11:34:37;;;;;;;2.73;1.63;;;;;;;21.33;49.02;101210.73;;;;-50
2019/09/06 11:37:37;;;;;;;4.35;1.45;;;;;;;21.36;49.11;101212.34;;;;-50
2019/09/06 11:40:37;;;;;;;3.27;1.51;;;;;;;21.38;49.01;101207.61;;;;-49
2019/09/06 11:43:37;;;;;;;3.32;1.63;;;;;;;21.39;49.11;101206.66;;;;-50
2019/09/06 11:46:37;;;;;;;2.19;1.55;;;;;;;21.41;49.11;101199.81;;;;-49
2019/09/06 11:49:37;;;;;;;4.13;1.57;;;;;;;21.42;49.17;101189.55;;;;-49
2019/09/06 11:52:37;;;;;;;2.35;1.33;;;;;;;21.44;49.22;101193.45;;;;-48
2019/09/06 11:55:46;;;;;;;2.70;1.52;;;;;;;21.46;49.25;101195.69;;;;-49
2019/09/06 11:58:37;;;;;;;5.22;1.36;;;;;;;21.47;49.32;101188.01;;;;-48
2019/09/06 12:01:37;;;;;;;2.01;1.45;;;;;;;21.48;49.37;101181.10;;;;-48
2019/09/06 12:04:37;;;;;;;2.00;1.50;;;;;;;21.50;49.36;101171.72;;;;-49
2019/09/06 12:07:37;;;;;;;2.50;1.41;;;;;;;21.51;49.35;101172.01;;;;-47
2019/09/06 12:10:37;;;;;;;2.52;1.37;;;;;;;21.53;49.33;101165.71;;;;-47
2019/09/06 12:13:37;;;;;;;2.26;1.63;;;;;;;21.55;49.33;101167.31;;;;-46
2019/09/06 12:16:37;;;;;;;1.93;1.45;;;;;;;21.55;49.36;101155.55;;;;-46
2019/09/06 12:19:37;;;;;;;1.40;1.30;;;;;;;21.57;49.32;101154.54;;;;-46
2019/09/06 12:22:37;;;;;;;2.15;1.32;;;;;;;21.58;49.38;101156.67;;;;-46
2019/09/06 12:25:37;;;;;;;5.01;1.54;;;;;;;21.59;49.40;101155.61;;;;-45
2019/09/06 12:28:37;;;;;;;1.94;1.39;;;;;;;21.59;49.40;101152.36;;;;-49
2019/09/06 12:31:37;;;;;;;1.99;1.49;;;;;;;21.58;49.28;101145.78;;;;-49
2019/09/06 12:34:37;;;;;;;3.66;1.47;;;;;;;21.58;49.34;101141.23;;;;-48
2019/09/06 12:37:38;;;;;;;2.87;1.32;;;;;;;21.57;49.37;101141.47;;;;-49
2019/09/06 12:40:37;;;;;;;2.87;1.38;;;;;;;21.58;49.40;101140.57;;;;-49
2019/09/06 12:43:37;;;;;;;1.43;1.30;;;;;;;21.58;49.33;101140.47;;;;-49
2019/09/06 12:46:37;;;;;;;2.55;1.37;;;;;;;21.58;49.37;101136.02;;;;-49
2019/09/06 12:49:37;;;;;;;1.82;1.31;;;;;;;21.58;49.31;101132.33;;;;-49
2019/09/06 12:52:37;;;;;;;1.78;1.40;;;;;;;21.58;49.33;101131.97;;;;-49
2019/09/06 12:55:37;;;;;;;2.60;1.48;;;;;;;21.58;49.24;101125.95;;;;-49
2019/09/06 12:58:37;;;;;;;2.03;1.33;;;;;;;21.58;49.21;101126.75;;;;-49
2019/09/06 13:01:37;;;;;;;2.34;1.46;;;;;;;21.58;49.20;101118.21;;;;-48
2019/09/06 13:04:37;;;;;;;1.80;1.41;;;;;;;21.59;49.23;101117.75;;;;-49
2019/09/06 13:07:38;;;;;;;1.73;1.33;;;;;;;21.58;49.19;101112.83;;;;-48
2019/09/06 13:10:38;;;;;;;1.67;1.27;;;;;;;21.59;49.22;101110.33;;;;-49
2019/09/06 13:13:37;;;;;;;1.68;1.39;;;;;;;21.60;49.25;101108.55;;;;-49
2019/09/06 13:16:37;;;;;;;2.09;1.35;;;;;;;21.60;49.16;101109.27;;;;-49
2019/09/06 13:19:37;;;;;;;1.81;1.26;;;;;;;21.59;49.12;101103.00;;;;-49
2019/09/06 13:22:38;;;;;;;1.50;1.31;;;;;;;21.58;49.17;101103.42;;;;-49
2019/09/06 13:25:37;;;;;;;1.38;1.20;;;;;;;21.60;49.19;101097.09;;;;-49
2019/09/06 13:28:38;;;;;;;1.69;1.20;;;;;;;21.60;49.11;101097.33;;;;-48
2019/09/06 13:31:37;;;;;;;1.45;1.27;;;;;;;21.60;49.10;101089.87;;;;-49
2019/09/06 13:34:37;;;;;;;1.30;1.20;;;;;;;21.60;49.09;101083.31;;;;-48
2019/09/06 13:37:37;;;;;;;1.69;1.31;;;;;;;21.61;49.06;101074.58;;;;-49
2019/09/06 13:40:37;;;;;;;1.40;1.30;;;;;;;21.62;49.11;101070.98;;;;-55
2019/09/06 13:43:37;;;;;;;1.67;1.40;;;;;;;21.61;49.06;101065.70;;;;-56
2019/09/06 13:46:37;;;;;;;1.87;1.28;;;;;;;21.62;49.09;101069.34;;;;-55
2019/09/06 13:49:37;;;;;;;2.02;1.20;;;;;;;21.61;49.06;101062.08;;;;-56
2019/09/06 13:52:37;;;;;;;1.29;1.19;;;;;;;21.62;49.12;101060.04;;;;-57
2019/09/06 13:55:37;;;;;;;1.34;1.20;;;;;;;21.62;49.06;101055.39;;;;-55
2019/09/06 13:58:37;;;;;;;1.53;1.29;;;;;;;21.61;49.08;101062.18;;;;-56
2019/09/06 14:01:37;;;;;;;1.42;1.30;;;;;;;21.62;49.10;101058.08;;;;-56
2019/09/06 14:04:37;;;;;;;1.45;1.28;;;;;;;21.63;49.06;101058.93;;;;-48
2019/09/06 14:07:37;;;;;;;3.37;1.51;;;;;;;21.65;49.23;101054.08;;;;-49
2019/09/06 14:10:37;;;;;;;1.34;1.24;;;;;;;21.66;49.21;101043.07;;;;-49
2019/09/06 14:13:37;;;;;;;3.27;1.34;;;;;;;21.67;49.24;101041.91;;;;-58
2019/09/06 14:16:38;;;;;;;3.81;1.40;;;;;;;21.70;49.28;101040.63;;;;-48
2019/09/06 14:19:38;;;;;;;1.45;1.26;;;;;;;21.68;49.29;101036.41;;;;-48
2019/09/06 14:22:38;;;;;;;1.97;1.28;;;;;;;21.69;49.21;101028.38;;;;-48
2019/09/06 14:25:38;;;;;;;2.35;1.30;;;;;;;21.69;49.08;101025.18;;;;-49
2019/09/06 14:28:38;;;;;;;1.91;1.33;;;;;;;21.69;49.19;101019.36;;;;-48
2019/09/06 14:31:37;;;;;;;3.33;1.30;;;;;;;21.69;49.25;101019.23;;;;-48
2019/09/06 14:34:37;;;;;;;4.22;1.46;;;;;;;21.69;49.20;101020.74;;;;-48
2019/09/06 14:37:37;;;;;;;2.45;1.34;;;;;;;21.70;49.20;101017.33;;;;-48
2019/09/06 14:40:37;;;;;;;1.45;1.29;;;;;;;21.70;49.13;101012.84;;;;-48
2019/09/06 14:43:38;;;;;;;3.37;1.30;;;;;;;21.70;49.13;101011.54;;;;-48
2019/09/06 14:46:37;;;;;;;1.95;1.31;;;;;;;21.70;49.16;101004.11;;;;-49
2019/09/06 14:49:37;;;;;;;1.81;1.22;;;;;;;21.70;49.16;101005.11;;;;-48
2019/09/06 14:52:37;;;;;;;1.87;1.30;;;;;;;21.70;49.18;101002.97;;;;-48
2019/09/06 14:55:37;;;;;;;2.95;1.20;;;;;;;21.71;49.13;101005.20;;;;-54
2019/09/06 14:58:38;;;;;;;2.17;1.27;;;;;;;21.71;49.08;101001.96;;;;-54
2019/09/06 15:01:37;;;;;;;2.57;1.27;;;;;;;21.71;49.11;101002.34;;;;-54
2019/09/06 15:04:37;;;;;;;1.31;1.21;;;;;;;21.71;49.12;101003.08;;;;-54
2019/09/06 15:07:38;;;;;;;1.82;1.30;;;;;;;21.72;49.12;101003.63;;;;-52
2019/09/06 15:10:37;;;;;;;2.19;1.16;;;;;;;21.72;49.05;101008.56;;;;-54
2019/09/06 15:13:37;;;;;;;2.29;1.29;;;;;;;21.72;49.08;101002.01;;;;-54
2019/09/06 15:16:37;;;;;;;2.03;1.33;;;;;;;21.71;49.11;100995.84;;;;-54
2019/09/06 15:19:37;;;;;;;2.50;1.20;;;;;;;21.72;49.13;100997.80;;;;-54
2019/09/06 15:22:38;;;;;;;2.11;1.26;;;;;;;21.72;49.07;100995.63;;;;-54
2019/09/06 15:25:37;;;;;;;1.57;1.13;;;;;;;21.72;49.11;100995.66;;;;-54
2019/09/06 15:28:37;;;;;;;1.22;1.13;;;;;;;21.72;49.04;100999.19;;;;-54
2019/09/06 15:31:37;;;;;;;1.52;1.11;;;;;;;21.72;49.11;100992.02;;;;-54
2019/09/06 15:34:37;;;;;;;1.59;1.16;;;;;;;21.73;49.08;100993.14;;;;-54
2019/09/06 15:37:37;;;;;;;1.43;1.19;;;;;;;21.72;49.13;100995.39;;;;-54
2019/09/06 15:40:37;;;;;;;1.30;1.20;;;;;;;21.73;49.11;100992.67;;;;-54
2019/09/06 15:43:37;;;;;;;1.28;1.17;;;;;;;21.73;49.19;100989.78;;;;-54
2019/09/06 15:46:37;;;;;;;1.79;1.10;;;;;;;21.73;49.11;100991.90;;;;-55
2019/09/06 15:49:37;;;;;;;1.46;1.20;;;;;;;21.73;49.18;100993.25;;;;-54
2019/09/06 15:52:37;;;;;;;1.27;1.14;;;;;;;21.73;49.16;100994.42;;;;-53
2019/09/06 15:55:38;;;;;;;1.24;1.14;;;;;;;21.72;49.18;100992.19;;;;-54
2019/09/06 15:58:38;;;;;;;1.30;1.20;;;;;;;21.73;49.22;100991.57;;;;-54
2019/09/06 16:01:37;;;;;;;1.36;1.20;;;;;;;21.73;49.22;100989.11;;;;-53
2019/09/06 16:04:37;;;;;;;1.32;1.22;;;;;;;21.74;49.20;100989.48;;;;-54
2019/09/06 16:07:37;;;;;;;1.15;1.08;;;;;;;21.74;49.23;100989.32;;;;-54
2019/09/06 16:10:37;;;;;;;1.49;1.21;;;;;;;21.74;49.08;100991.44;;;;-54
2019/09/06 16:13:37;;;;;;;1.20;1.10;;;;;;;21.74;49.09;100988.52;;;;-54
2019/09/06 16:16:37;;;;;;;1.34;1.20;;;;;;;21.74;49.12;100990.60;;;;-55
2019/09/06 16:19:38;;;;;;;1.53;1.20;;;;;;;21.73;49.14;100989.22;;;;-53
2019/09/06 16:22:38;;;;;;;1.65;1.30;;;;;;;21.75;49.19;100992.89;;;;-53
2019/09/06 16:25:37;;;;;;;1.25;1.15;;;;;;;21.74;49.16;100987.67;;;;-54
2019/09/06 16:28:37;;;;;;;1.34;1.13;;;;;;;21.75;49.15;100987.84;;;;-54
2019/09/06 16:31:37;;;;;;;1.32;1.22;;;;;;;21.74;49.24;100986.06;;;;-54
2019/09/06 16:34:38;;;;;;;1.17;1.09;;;;;;;21.76;49.33;100990.92;;;;-54
2019/09/06 16:37:37;;;;;;;1.27;1.19;;;;;;;21.76;49.29;100986.21;;;;-54
2019/09/06 16:40:38;;;;;;;1.29;1.19;;;;;;;21.75;49.23;100984.75;;;;-54
2019/09/06 16:43:38;;;;;;;1.27;1.18;;;;;;;21.76;49.19;100983.46;;;;-54